Observations for NASHVILLE METRO, TN (BNA)

KBNA 201553Z 00000KT 10SM BKN250 20/09 A3031 RMK AO2 SLP259 T02000094   
KBNA 201453Z 00000KT 10SM BKN250 17/10 A3032 RMK AO2 SLP265 T01670100 50005 $   
KBNA 201353Z 00000KT 10SM BCFG SCT250 14/09 A3032 RMK AO2 SLP266 BCFG N T01390094 $ 
KBNA 201253Z 00000KT 10SM BCFG FEW250 09/07 A3032 RMK AO2 SLP266 BCFG E-N T00890072 $   
KBNA 201153Z 18003KT 10SM BCFG FEW250 07/06 A3030 RMK AO2 SLP260 BCFG E T00720056 10106 20067 51014 $   
KBNA 201053Z 19003KT 10SM FEW250 07/06 A3030 RMK AO2 SLP258 T00670061 $ 
KBNA 200953Z 00000KT 6SM BR FEW250 08/07 A3028 RMK AO2 SLP250 BCFG T00830067 $  
KBNA 200853Z 00000KT 10SM FEW250 09/07 A3026 RMK AO2 SLP244 T00890072 51005 $   
KBNA 200753Z 00000KT 10SM FEW250 09/08 A3026 RMK AO2 SLP242 T00940078 $ 
KBNA 200653Z 00000KT 10SM FEW250 10/08 A3025 RMK AO2 SLP241 T01000083 $ 
KBNA 200553Z 00000KT 10SM FEW250 11/08 A3025 RMK AO2 SLP239 T01060083 10194 20100 402500067 51000   
KBNA 200453Z 18004KT 10SM FEW250 11/09 A3024 RMK AO2 SLP239 T01060089   
KBNA 200353Z 00000KT 10SM CLR 13/09 A3025 RMK AO2 SLP241 T01280094  
KBNA 200253Z 19004KT 10SM CLR 13/09 A3025 RMK AO2 SLP240 T01330094 53003
KBNA 200153Z 18004KT 10SM CLR 14/09 A3024 RMK AO2 SLP238 T01440094  
KBNA 200053Z 18004KT 10SM CLR 16/09 A3024 RMK AO2 SLP239 T01610094  
KBNA 192353Z 18003KT 10SM CLR 19/07 A3024 RMK AO2 SLP238 T01940072 10250 20194 53001
KBNA 192253Z 20004KT 10SM FEW250 21/07 A3023 RMK AO2 SLP234 T02110067   
KBNA 192153Z 12004KT 10SM FEW250 23/07 A3023 RMK AO2 SLP234 T02330072   
KBNA 192053Z 00000KT 10SM FEW250 24/05 A3024 RMK AO2 SLP235 T02440050 56018 
KBNA 191953Z 00000KT 10SM CLR 24/07 A3025 RMK AO2 SLP239 T02440072  
KBNA 191853Z 00000KT 10SM FEW200 23/07 A3026 RMK AO2 SLP243 T02280067   
KBNA 191753Z 00000KT 10SM FEW200 23/07 A3029 RMK AO2 SLP253 T02330067 10233 20067 58016 
KBNA 191653Z 32005KT 10SM CLR 22/07 A3031 RMK AO2 SLP262 T02170072  
KBNA 191553Z 20007KT 180V240 10SM CLR 19/07 A3033 RMK AO2 SLP268 T01940072